sensor_id;sensor_type;location;lat;lon;timestamp;P1;durP1;ratioP1;P2;durP2;ratioP2
41323;SDS011;27073;51.128;4.220;2023-02-17T00:01:30;3.40;;;2.97;;
41323;SDS011;27073;51.128;4.220;2023-02-17T00:03:57;4.55;;;3.55;;
41323;SDS011;27073;51.128;4.220;2023-02-17T00:06:24;3.45;;;2.55;;
41323;SDS011;27073;51.128;4.220;2023-02-17T00:08:52;4.35;;;3.45;;
41323;SDS011;27073;51.128;4.220;2023-02-17T00:11:18;4.97;;;3.20;;
41323;SDS011;27073;51.128;4.220;2023-02-17T00:13:45;4.30;;;2.92;;
41323;SDS011;27073;51.128;4.220;2023-02-17T00:16:20;5.07;;;3.30;;
41323;SDS011;27073;51.128;4.220;2023-02-17T00:18:51;5.15;;;3.00;;
41323;SDS011;27073;51.128;4.220;2023-02-17T00:21:19;4.22;;;3.33;;
41323;SDS011;27073;51.128;4.220;2023-02-17T00:23:47;4.32;;;2.88;;
41323;SDS011;27073;51.128;4.220;2023-02-17T00:26:13;5.55;;;4.00;;
41323;SDS011;27073;51.128;4.220;2023-02-17T00:28:41;5.55;;;3.28;;
41323;SDS011;27073;51.128;4.220;2023-02-17T00:31:07;4.13;;;3.05;;
41323;SDS011;27073;51.128;4.220;2023-02-17T00:33:35;4.70;;;3.05;;
41323;SDS011;27073;51.128;4.220;2023-02-17T00:36:02;4.80;;;3.22;;
41323;SDS011;27073;51.128;4.220;2023-02-17T00:38:29;4.07;;;3.17;;
41323;SDS011;27073;51.128;4.220;2023-02-17T00:40:55;4.75;;;3.60;;
41323;SDS011;27073;51.128;4.220;2023-02-17T00:43:22;3.78;;;3.03;;
41323;SDS011;27073;51.128;4.220;2023-02-17T00:45:47;4.88;;;3.63;;
41323;SDS011;27073;51.128;4.220;2023-02-17T00:48:13;5.07;;;3.40;;
41323;SDS011;27073;51.128;4.220;2023-02-17T00:50:39;5.57;;;3.80;;
41323;SDS011;27073;51.128;4.220;2023-02-17T00:53:04;5.07;;;3.80;;
41323;SDS011;27073;51.128;4.220;2023-02-17T00:55:31;4.00;;;3.20;;
41323;SDS011;27073;51.128;4.220;2023-02-17T00:57:57;4.20;;;3.53;;
41323;SDS011;27073;51.128;4.220;2023-02-17T01:00:23;5.03;;;4.32;;
41323;SDS011;27073;51.128;4.220;2023-02-17T01:02:48;5.43;;;4.10;;
41323;SDS011;27073;51.128;4.220;2023-02-17T01:05:15;5.25;;;4.40;;
41323;SDS011;27073;51.128;4.220;2023-02-17T01:07:44;5.10;;;4.50;;
41323;SDS011;27073;51.128;4.220;2023-02-17T01:10:11;5.95;;;4.75;;
41323;SDS011;27073;51.128;4.220;2023-02-17T01:12:36;4.90;;;4.40;;
41323;SDS011;27073;51.128;4.220;2023-02-17T01:15:03;7.38;;;4.97;;
41323;SDS011;27073;51.128;4.220;2023-02-17T01:17:28;5.78;;;4.43;;
41323;SDS011;27073;51.128;4.220;2023-02-17T01:19:54;5.00;;;4.25;;
41323;SDS011;27073;51.128;4.220;2023-02-17T01:22:21;4.32;;;3.90;;
41323;SDS011;27073;51.128;4.220;2023-02-17T01:24:46;5.60;;;4.10;;
41323;SDS011;27073;51.128;4.220;2023-02-17T01:27:12;6.63;;;3.97;;
41323;SDS011;27073;51.128;4.220;2023-02-17T01:29:38;4.38;;;3.60;;
41323;SDS011;27073;51.128;4.220;2023-02-17T01:32:04;4.43;;;3.50;;
41323;SDS011;27073;51.128;4.220;2023-02-17T01:34:29;4.13;;;3.65;;
41323;SDS011;27073;51.128;4.220;2023-02-17T01:36:55;5.50;;;3.35;;
41323;SDS011;27073;51.128;4.220;2023-02-17T01:39:21;4.85;;;3.50;;
41323;SDS011;27073;51.128;4.220;2023-02-17T01:41:46;4.82;;;3.00;;
41323;SDS011;27073;51.128;4.220;2023-02-17T01:46:41;4.10;;;3.45;;
41323;SDS011;27073;51.128;4.220;2023-02-17T01:49:14;6.20;;;3.10;;
41323;SDS011;27073;51.128;4.220;2023-02-17T01:51:46;5.43;;;3.45;;
41323;SDS011;27073;51.128;4.220;2023-02-17T01:54:16;5.03;;;3.50;;
41323;SDS011;27073;51.128;4.220;2023-02-17T01:56:45;4.85;;;3.42;;
41323;SDS011;27073;51.128;4.220;2023-02-17T01:59:17;4.88;;;3.40;;
41323;SDS011;27073;51.128;4.220;2023-02-17T02:01:47;5.00;;;3.08;;
41323;SDS011;27073;51.128;4.220;2023-02-17T02:04:16;3.63;;;2.90;;
41323;SDS011;27073;51.128;4.220;2023-02-17T02:06:44;5.68;;;3.65;;
41323;SDS011;27073;51.128;4.220;2023-02-17T02:09:22;5.63;;;3.70;;
41323;SDS011;27073;51.128;4.220;2023-02-17T02:11:56;4.10;;;3.50;;
41323;SDS011;27073;51.128;4.220;2023-02-17T02:14:28;5.90;;;3.53;;
41323;SDS011;27073;51.128;4.220;2023-02-17T02:23:11;4.03;;;3.50;;
41323;SDS011;27073;51.128;4.220;2023-02-17T02:28:37;5.22;;;3.47;;
41323;SDS011;27073;51.128;4.220;2023-02-17T02:33:49;4.65;;;2.90;;
41323;SDS011;27073;51.128;4.220;2023-02-17T02:36:30;5.60;;;2.80;;
41323;SDS011;27073;51.128;4.220;2023-02-17T02:39:09;3.83;;;2.80;;
41323;SDS011;27073;51.128;4.220;2023-02-17T02:41:42;4.80;;;2.50;;
41323;SDS011;27073;51.128;4.220;2023-02-17T02:44:19;3.42;;;2.90;;
41323;SDS011;27073;51.128;4.220;2023-02-17T02:46:56;3.55;;;2.75;;
41323;SDS011;27073;51.128;4.220;2023-02-17T02:49:23;3.80;;;2.30;;
41323;SDS011;27073;51.128;4.220;2023-02-17T03:02:58;3.00;;;2.28;;
41323;SDS011;27073;51.128;4.220;2023-02-17T03:08:37;2.72;;;2.17;;
41323;SDS011;27073;51.128;4.220;2023-02-17T03:11:10;3.25;;;2.10;;
41323;SDS011;27073;51.128;4.220;2023-02-17T03:13:37;3.65;;;2.40;;
41323;SDS011;27073;51.128;4.220;2023-02-17T03:18:36;5.55;;;2.67;;
41323;SDS011;27073;51.128;4.220;2023-02-17T03:21:05;2.90;;;2.30;;
41323;SDS011;27073;51.128;4.220;2023-02-17T03:23:40;4.88;;;2.55;;
41323;SDS011;27073;51.128;4.220;2023-02-17T03:26:05;3.42;;;2.13;;
41323;SDS011;27073;51.128;4.220;2023-02-17T03:28:31;3.67;;;2.90;;
41323;SDS011;27073;51.128;4.220;2023-02-17T03:30:58;3.80;;;2.65;;
41323;SDS011;27073;51.128;4.220;2023-02-17T03:33:24;3.83;;;2.42;;
41323;SDS011;27073;51.128;4.220;2023-02-17T03:35:50;4.82;;;2.30;;
41323;SDS011;27073;51.128;4.220;2023-02-17T03:38:16;5.15;;;2.40;;
41323;SDS011;27073;51.128;4.220;2023-02-17T03:40:42;5.15;;;3.00;;
41323;SDS011;27073;51.128;4.220;2023-02-17T03:43:08;6.35;;;2.78;;
41323;SDS011;27073;51.128;4.220;2023-02-17T03:45:36;3.60;;;2.92;;
41323;SDS011;27073;51.128;4.220;2023-02-17T03:48:02;6.03;;;3.05;;
41323;SDS011;27073;51.128;4.220;2023-02-17T03:50:28;6.05;;;3.00;;
41323;SDS011;27073;51.128;4.220;2023-02-17T03:52:54;5.70;;;3.38;;
41323;SDS011;27073;51.128;4.220;2023-02-17T03:55:20;3.97;;;3.13;;
41323;SDS011;27073;51.128;4.220;2023-02-17T03:57:45;7.15;;;3.63;;
41323;SDS011;27073;51.128;4.220;2023-02-17T04:00:11;5.18;;;3.53;;
41323;SDS011;27073;51.128;4.220;2023-02-17T04:02:38;4.78;;;3.28;;
41323;SDS011;27073;51.128;4.220;2023-02-17T04:05:03;6.18;;;4.00;;
41323;SDS011;27073;51.128;4.220;2023-02-17T04:07:29;6.75;;;3.55;;
41323;SDS011;27073;51.128;4.220;2023-02-17T04:09:55;5.82;;;3.45;;
41323;SDS011;27073;51.128;4.220;2023-02-17T04:12:21;6.45;;;3.13;;
41323;SDS011;27073;51.128;4.220;2023-02-17T04:14:46;7.40;;;2.83;;
41323;SDS011;27073;51.128;4.220;2023-02-17T04:17:12;7.55;;;3.85;;
41323;SDS011;27073;51.128;4.220;2023-02-17T04:19:38;6.18;;;3.75;;
41323;SDS011;27073;51.128;4.220;2023-02-17T04:22:03;7.40;;;3.92;;
41323;SDS011;27073;51.128;4.220;2023-02-17T04:24:32;10.32;;;4.10;;
41323;SDS011;27073;51.128;4.220;2023-02-17T04:27:00;6.65;;;3.80;;
41323;SDS011;27073;51.128;4.220;2023-02-17T04:29:25;4.60;;;3.50;;
41323;SDS011;27073;51.128;4.220;2023-02-17T04:31:51;8.48;;;4.47;;
41323;SDS011;27073;51.128;4.220;2023-02-17T04:34:17;8.68;;;5.00;;
41323;SDS011;27073;51.128;4.220;2023-02-17T04:36:42;8.05;;;4.15;;
41323;SDS011;27073;51.128;4.220;2023-02-17T04:39:08;8.20;;;4.13;;
41323;SDS011;27073;51.128;4.220;2023-02-17T04:41:34;11.70;;;4.60;;
41323;SDS011;27073;51.128;4.220;2023-02-17T04:43:59;8.50;;;4.80;;
41323;SDS011;27073;51.128;4.220;2023-02-17T04:46:25;10.55;;;5.00;;
41323;SDS011;27073;51.128;4.220;2023-02-17T04:48:51;8.77;;;4.53;;
41323;SDS011;27073;51.128;4.220;2023-02-17T04:51:16;9.02;;;5.03;;
41323;SDS011;27073;51.128;4.220;2023-02-17T04:53:42;11.57;;;4.97;;
41323;SDS011;27073;51.128;4.220;2023-02-17T04:56:08;9.52;;;5.45;;
41323;SDS011;27073;51.128;4.220;2023-02-17T04:58:33;10.85;;;5.60;;
41323;SDS011;27073;51.128;4.220;2023-02-17T05:00:59;10.82;;;5.72;;
41323;SDS011;27073;51.128;4.220;2023-02-17T05:03:25;8.57;;;6.00;;
41323;SDS011;27073;51.128;4.220;2023-02-17T05:05:51;11.38;;;5.65;;
41323;SDS011;27073;51.128;4.220;2023-02-17T05:08:16;10.48;;;5.90;;
41323;SDS011;27073;51.128;4.220;2023-02-17T05:10:42;8.95;;;5.63;;
41323;SDS011;27073;51.128;4.220;2023-02-17T05:13:08;9.05;;;6.47;;
41323;SDS011;27073;51.128;4.220;2023-02-17T05:15:34;11.00;;;6.10;;
41323;SDS011;27073;51.128;4.220;2023-02-17T05:17:59;10.77;;;5.90;;
41323;SDS011;27073;51.128;4.220;2023-02-17T05:20:25;8.15;;;5.82;;
41323;SDS011;27073;51.128;4.220;2023-02-17T05:22:51;9.05;;;6.15;;
41323;SDS011;27073;51.128;4.220;2023-02-17T05:25:17;11.98;;;6.97;;
41323;SDS011;27073;51.128;4.220;2023-02-17T05:27:42;7.68;;;5.97;;
41323;SDS011;27073;51.128;4.220;2023-02-17T05:30:08;10.43;;;6.07;;
41323;SDS011;27073;51.128;4.220;2023-02-17T05:32:34;10.52;;;6.47;;
41323;SDS011;27073;51.128;4.220;2023-02-17T05:35:00;10.55;;;6.30;;
41323;SDS011;27073;51.128;4.220;2023-02-17T05:37:26;10.70;;;6.47;;
41323;SDS011;27073;51.128;4.220;2023-02-17T05:39:51;10.05;;;6.88;;
41323;SDS011;27073;51.128;4.220;2023-02-17T05:42:17;11.00;;;6.43;;
41323;SDS011;27073;51.128;4.220;2023-02-17T05:44:43;11.85;;;7.05;;
41323;SDS011;27073;51.128;4.220;2023-02-17T05:47:08;10.38;;;7.32;;
41323;SDS011;27073;51.128;4.220;2023-02-17T05:49:34;12.30;;;6.80;;
41323;SDS011;27073;51.128;4.220;2023-02-17T05:52:00;8.98;;;6.30;;
41323;SDS011;27073;51.128;4.220;2023-02-17T05:54:26;13.27;;;8.05;;
41323;SDS011;27073;51.128;4.220;2023-02-17T05:56:52;10.45;;;7.18;;
41323;SDS011;27073;51.128;4.220;2023-02-17T05:59:17;9.60;;;7.13;;
41323;SDS011;27073;51.128;4.220;2023-02-17T06:01:43;13.20;;;6.88;;
41323;SDS011;27073;51.128;4.220;2023-02-17T06:04:09;7.38;;;6.43;;
41323;SDS011;27073;51.128;4.220;2023-02-17T06:06:35;10.95;;;6.90;;
41323;SDS011;27073;51.128;4.220;2023-02-17T06:09:00;10.15;;;7.25;;
41323;SDS011;27073;51.128;4.220;2023-02-17T06:11:26;9.13;;;6.70;;
41323;SDS011;27073;51.128;4.220;2023-02-17T06:13:52;9.50;;;7.78;;
41323;SDS011;27073;51.128;4.220;2023-02-17T06:16:18;8.85;;;7.15;;
41323;SDS011;27073;51.128;4.220;2023-02-17T06:18:43;14.02;;;7.57;;
41323;SDS011;27073;51.128;4.220;2023-02-17T06:21:09;8.13;;;7.25;;
41323;SDS011;27073;51.128;4.220;2023-02-17T06:23:35;10.05;;;7.07;;
41323;SDS011;27073;51.128;4.220;2023-02-17T06:26:00;11.93;;;7.60;;
41323;SDS011;27073;51.128;4.220;2023-02-17T06:28:26;10.48;;;7.45;;
41323;SDS011;27073;51.128;4.220;2023-02-17T06:30:52;8.60;;;7.05;;
41323;SDS011;27073;51.128;4.220;2023-02-17T06:33:17;10.43;;;7.13;;
41323;SDS011;27073;51.128;4.220;2023-02-17T06:35:46;10.25;;;6.93;;
41323;SDS011;27073;51.128;4.220;2023-02-17T06:38:14;8.55;;;7.13;;
41323;SDS011;27073;51.128;4.220;2023-02-17T06:40:40;8.63;;;7.03;;
41323;SDS011;27073;51.128;4.220;2023-02-17T06:43:05;8.07;;;6.47;;
41323;SDS011;27073;51.128;4.220;2023-02-17T06:45:32;8.35;;;6.22;;
41323;SDS011;27073;51.128;4.220;2023-02-17T06:47:57;7.93;;;6.45;;
41323;SDS011;27073;51.128;4.220;2023-02-17T06:50:23;9.45;;;6.93;;
41323;SDS011;27073;51.128;4.220;2023-02-17T06:52:49;9.55;;;5.97;;
41323;SDS011;27073;51.128;4.220;2023-02-17T06:55:15;8.57;;;6.50;;
41323;SDS011;27073;51.128;4.220;2023-02-17T06:57:40;8.57;;;6.07;;
41323;SDS011;27073;51.128;4.220;2023-02-17T07:00:06;6.63;;;5.93;;
41323;SDS011;27073;51.128;4.220;2023-02-17T07:02:32;8.65;;;6.03;;
41323;SDS011;27073;51.128;4.220;2023-02-17T07:04:58;7.57;;;5.75;;
41323;SDS011;27073;51.128;4.220;2023-02-17T07:07:24;8.48;;;5.82;;
41323;SDS011;27073;51.128;4.220;2023-02-17T07:09:50;6.82;;;5.47;;
41323;SDS011;27073;51.128;4.220;2023-02-17T07:12:15;7.55;;;5.60;;
41323;SDS011;27073;51.128;4.220;2023-02-17T07:14:41;8.48;;;4.95;;
41323;SDS011;27073;51.128;4.220;2023-02-17T07:17:07;5.70;;;5.10;;
41323;SDS011;27073;51.128;4.220;2023-02-17T07:19:32;5.38;;;4.75;;
41323;SDS011;27073;51.128;4.220;2023-02-17T07:21:58;6.20;;;5.35;;
41323;SDS011;27073;51.128;4.220;2023-02-17T07:24:24;6.22;;;4.97;;
41323;SDS011;27073;51.128;4.220;2023-02-17T07:26:51;5.00;;;4.50;;
41323;SDS011;27073;51.128;4.220;2023-02-17T07:29:19;5.18;;;4.60;;
41323;SDS011;27073;51.128;4.220;2023-02-17T07:31:45;6.28;;;4.78;;
41323;SDS011;27073;51.128;4.220;2023-02-17T07:34:11;4.72;;;4.32;;
41323;SDS011;27073;51.128;4.220;2023-02-17T07:36:36;4.97;;;4.15;;
41323;SDS011;27073;51.128;4.220;2023-02-17T07:39:02;3.50;;;3.10;;
41323;SDS011;27073;51.128;4.220;2023-02-17T07:41:28;4.30;;;3.70;;
41323;SDS011;27073;51.128;4.220;2023-02-17T07:43:56;5.28;;;4.13;;
41323;SDS011;27073;51.128;4.220;2023-02-17T07:46:23;3.92;;;3.53;;
41323;SDS011;27073;51.128;4.220;2023-02-17T07:48:49;3.85;;;3.13;;
41323;SDS011;27073;51.128;4.220;2023-02-17T07:51:16;3.55;;;3.25;;
41323;SDS011;27073;51.128;4.220;2023-02-17T07:53:43;2.92;;;2.63;;
41323;SDS011;27073;51.128;4.220;2023-02-17T07:56:10;4.60;;;3.15;;
41323;SDS011;27073;51.128;4.220;2023-02-17T07:58:38;4.43;;;3.08;;
41323;SDS011;27073;51.128;4.220;2023-02-17T08:03:35;3.70;;;3.05;;
41323;SDS011;27073;51.128;4.220;2023-02-17T08:06:01;3.50;;;2.58;;
41323;SDS011;27073;51.128;4.220;2023-02-17T08:08:27;3.08;;;2.30;;
41323;SDS011;27073;51.128;4.220;2023-02-17T08:11:12;3.47;;;2.17;;
41323;SDS011;27073;51.128;4.220;2023-02-17T08:13:59;3.00;;;2.00;;
41323;SDS011;27073;51.128;4.220;2023-02-17T08:16:25;3.28;;;2.10;;
41323;SDS011;27073;51.128;4.220;2023-02-17T08:18:52;2.47;;;2.00;;
41323;SDS011;27073;51.128;4.220;2023-02-17T08:21:20;2.20;;;1.70;;
41323;SDS011;27073;51.128;4.220;2023-02-17T08:23:46;2.10;;;1.85;;
41323;SDS011;27073;51.128;4.220;2023-02-17T08:26:12;2.05;;;1.38;;
41323;SDS011;27073;51.128;4.220;2023-02-17T08:28:39;2.15;;;1.45;;
41323;SDS011;27073;51.128;4.220;2023-02-17T08:31:22;1.50;;;1.20;;
41323;SDS011;27073;51.128;4.220;2023-02-17T08:33:53;1.92;;;1.23;;
41323;SDS011;27073;51.128;4.220;2023-02-17T08:36:19;3.13;;;1.30;;
41323;SDS011;27073;51.128;4.220;2023-02-17T08:38:49;2.17;;;1.30;;
41323;SDS011;27073;51.128;4.220;2023-02-17T08:41:37;2.08;;;1.20;;
41323;SDS011;27073;51.128;4.220;2023-02-17T08:44:05;1.85;;;1.20;;
41323;SDS011;27073;51.128;4.220;2023-02-17T08:46:34;2.13;;;1.38;;
41323;SDS011;27073;51.128;4.220;2023-02-17T08:49:01;2.00;;;0.95;;
41323;SDS011;27073;51.128;4.220;2023-02-17T08:51:28;2.20;;;1.17;;
41323;SDS011;27073;51.128;4.220;2023-02-17T08:53:55;3.83;;;1.10;;
41323;SDS011;27073;51.128;4.220;2023-02-17T08:56:23;2.83;;;1.08;;
41323;SDS011;27073;51.128;4.220;2023-02-17T08:58:49;3.08;;;1.20;;
41323;SDS011;27073;51.128;4.220;2023-02-17T09:01:16;3.35;;;0.88;;
41323;SDS011;27073;51.128;4.220;2023-02-17T09:03:43;1.45;;;0.90;;
41323;SDS011;27073;51.128;4.220;2023-02-17T09:06:09;1.73;;;1.00;;
41323;SDS011;27073;51.128;4.220;2023-02-17T09:08:35;1.65;;;0.80;;
41323;SDS011;27073;51.128;4.220;2023-02-17T09:11:03;2.65;;;1.10;;
41323;SDS011;27073;51.128;4.220;2023-02-17T09:13:29;2.80;;;0.93;;
41323;SDS011;27073;51.128;4.220;2023-02-17T09:15:55;1.52;;;0.88;;
41323;SDS011;27073;51.128;4.220;2023-02-17T09:18:22;3.63;;;1.52;;
41323;SDS011;27073;51.128;4.220;2023-02-17T09:20:48;1.20;;;0.70;;
41323;SDS011;27073;51.128;4.220;2023-02-17T09:23:14;1.42;;;0.90;;
41323;SDS011;27073;51.128;4.220;2023-02-17T09:25:40;1.70;;;0.77;;
41323;SDS011;27073;51.128;4.220;2023-02-17T09:28:06;1.98;;;0.70;;
41323;SDS011;27073;51.128;4.220;2023-02-17T09:30:32;1.98;;;1.13;;
41323;SDS011;27073;51.128;4.220;2023-02-17T09:32:58;2.45;;;0.90;;
41323;SDS011;27073;51.128;4.220;2023-02-17T09:35:24;2.67;;;0.93;;
41323;SDS011;27073;51.128;4.220;2023-02-17T09:37:50;3.08;;;0.80;;
41323;SDS011;27073;51.128;4.220;2023-02-17T09:40:21;1.80;;;0.95;;
41323;SDS011;27073;51.128;4.220;2023-02-17T09:42:50;1.70;;;0.88;;
41323;SDS011;27073;51.128;4.220;2023-02-17T09:45:18;1.50;;;0.98;;
41323;SDS011;27073;51.128;4.220;2023-02-17T09:47:50;3.22;;;1.42;;
41323;SDS011;27073;51.128;4.220;2023-02-17T09:50:27;1.87;;;1.07;;
41323;SDS011;27073;51.128;4.220;2023-02-17T09:53:02;2.40;;;0.82;;
41323;SDS011;27073;51.128;4.220;2023-02-17T09:55:37;1.65;;;1.17;;
41323;SDS011;27073;51.128;4.220;2023-02-17T09:58:10;1.85;;;1.00;;
41323;SDS011;27073;51.128;4.220;2023-02-17T10:00:50;1.40;;;0.90;;
41323;SDS011;27073;51.128;4.220;2023-02-17T10:06:30;1.83;;;0.98;;
41323;SDS011;27073;51.128;4.220;2023-02-17T10:11:40;2.08;;;0.98;;
41323;SDS011;27073;51.128;4.220;2023-02-17T10:17:12;2.55;;;1.30;;
41323;SDS011;27073;51.128;4.220;2023-02-17T10:19:53;1.70;;;1.30;;
41323;SDS011;27073;51.128;4.220;2023-02-17T10:22:28;1.60;;;1.08;;
41323;SDS011;27073;51.128;4.220;2023-02-17T10:24:56;1.73;;;0.93;;
41323;SDS011;27073;51.128;4.220;2023-02-17T10:27:34;2.58;;;1.48;;
41323;SDS011;27073;51.128;4.220;2023-02-17T10:33:01;3.30;;;1.40;;
41323;SDS011;27073;51.128;4.220;2023-02-17T10:38:18;2.60;;;1.73;;
41323;SDS011;27073;51.128;4.220;2023-02-17T10:41:14;3.15;;;1.52;;
41323;SDS011;27073;51.128;4.220;2023-02-17T10:43:44;2.47;;;1.42;;
41323;SDS011;27073;51.128;4.220;2023-02-17T10:46:12;2.38;;;1.70;;
41323;SDS011;27073;51.128;4.220;2023-02-17T10:48:42;2.22;;;1.65;;
41323;SDS011;27073;51.128;4.220;2023-02-17T10:51:15;3.60;;;1.80;;
41323;SDS011;27073;51.128;4.220;2023-02-17T10:53:44;3.42;;;2.00;;
41323;SDS011;27073;51.128;4.220;2023-02-17T10:56:49;2.97;;;1.88;;
41323;SDS011;27073;51.128;4.220;2023-02-17T10:59:17;2.28;;;1.40;;
41323;SDS011;27073;51.128;4.220;2023-02-17T11:01:50;2.95;;;1.63;;
41323;SDS011;27073;51.128;4.220;2023-02-17T11:04:16;1.77;;;1.30;;
41323;SDS011;27073;51.128;4.220;2023-02-17T11:09:24;1.88;;;1.05;;
41323;SDS011;27073;51.128;4.220;2023-02-17T11:12:19;5.95;;;1.48;;
41323;SDS011;27073;51.128;4.220;2023-02-17T11:14:49;4.88;;;1.70;;
41323;SDS011;27073;51.128;4.220;2023-02-17T11:17:27;2.78;;;1.52;;
41323;SDS011;27073;51.128;4.220;2023-02-17T11:20:06;2.83;;;1.73;;
41323;SDS011;27073;51.128;4.220;2023-02-17T11:23:25;3.88;;;1.95;;
41323;SDS011;27073;51.128;4.220;2023-02-17T11:25:54;4.65;;;2.15;;
41323;SDS011;27073;51.128;4.220;2023-02-17T11:28:22;2.35;;;1.42;;
41323;SDS011;27073;51.128;4.220;2023-02-17T11:30:54;4.65;;;1.88;;
41323;SDS011;27073;51.128;4.220;2023-02-17T11:33:43;1.67;;;1.00;;
41323;SDS011;27073;51.128;4.220;2023-02-17T11:36:20;3.78;;;1.35;;
41323;SDS011;27073;51.128;4.220;2023-02-17T11:38:51;2.58;;;1.25;;
41323;SDS011;27073;51.128;4.220;2023-02-17T11:41:18;5.22;;;2.47;;
41323;SDS011;27073;51.128;4.220;2023-02-17T11:43:54;3.60;;;1.90;;
41323;SDS011;27073;51.128;4.220;2023-02-17T12:00:53;2.75;;;1.00;;
41323;SDS011;27073;51.128;4.220;2023-02-17T12:03:42;5.70;;;1.60;;
41323;SDS011;27073;51.128;4.220;2023-02-17T12:34:33;4.25;;;0.80;;
41323;SDS011;27073;51.128;4.220;2023-02-17T12:37:05;2.03;;;0.70;;
41323;SDS011;27073;51.128;4.220;2023-02-17T12:39:40;3.50;;;0.90;;
41323;SDS011;27073;51.128;4.220;2023-02-17T12:42:11;2.50;;;0.80;;
41323;SDS011;27073;51.128;4.220;2023-02-17T12:45:15;4.03;;;0.68;;
41323;SDS011;27073;51.128;4.220;2023-02-17T12:50:29;4.15;;;0.85;;
41323;SDS011;27073;51.128;4.220;2023-02-17T12:53:02;3.50;;;0.68;;
41323;SDS011;27073;51.128;4.220;2023-02-17T12:55:43;2.55;;;0.55;;
41323;SDS011;27073;51.128;4.220;2023-02-17T12:58:19;1.65;;;0.50;;
41323;SDS011;27073;51.128;4.220;2023-02-17T13:00:57;2.33;;;0.43;;
41323;SDS011;27073;51.128;4.220;2023-02-17T13:03:30;2.97;;;0.60;;
41323;SDS011;27073;51.128;4.220;2023-02-17T13:13:54;2.88;;;0.90;;
41323;SDS011;27073;51.128;4.220;2023-02-17T13:16:20;2.63;;;0.70;;
41323;SDS011;27073;51.128;4.220;2023-02-17T13:18:47;3.78;;;0.90;;
41323;SDS011;27073;51.128;4.220;2023-02-17T13:26:38;2.00;;;0.93;;
41323;SDS011;27073;51.128;4.220;2023-02-17T13:32:06;4.50;;;0.70;;
41323;SDS011;27073;51.128;4.220;2023-02-17T13:34:36;3.72;;;0.80;;
41323;SDS011;27073;51.128;4.220;2023-02-17T13:42:46;2.38;;;0.90;;
41323;SDS011;27073;51.128;4.220;2023-02-17T13:47:51;1.80;;;0.60;;
41323;SDS011;27073;51.128;4.220;2023-02-17T13:55:51;3.50;;;1.15;;
41323;SDS011;27073;51.128;4.220;2023-02-17T13:58:29;2.10;;;1.00;;
41323;SDS011;27073;51.128;4.220;2023-02-17T14:00:57;2.08;;;1.00;;
41323;SDS011;27073;51.128;4.220;2023-02-17T14:03:24;2.38;;;0.88;;
41323;SDS011;27073;51.128;4.220;2023-02-17T14:05:58;3.13;;;1.80;;
41323;SDS011;27073;51.128;4.220;2023-02-17T14:11:17;4.95;;;2.00;;
41323;SDS011;27073;51.128;4.220;2023-02-17T14:13:45;4.97;;;2.30;;
41323;SDS011;27073;51.128;4.220;2023-02-17T14:16:26;5.80;;;1.52;;
41323;SDS011;27073;51.128;4.220;2023-02-17T14:21:44;2.95;;;0.88;;
41323;SDS011;27073;51.128;4.220;2023-02-17T14:24:32;4.10;;;1.38;;
41323;SDS011;27073;51.128;4.220;2023-02-17T14:27:04;3.15;;;1.75;;
41323;SDS011;27073;51.128;4.220;2023-02-17T14:29:48;3.40;;;1.48;;
41323;SDS011;27073;51.128;4.220;2023-02-17T14:32:27;5.43;;;1.67;;
41323;SDS011;27073;51.128;4.220;2023-02-17T14:35:32;4.18;;;1.92;;
41323;SDS011;27073;51.128;4.220;2023-02-17T14:37:50;2.53;;;1.60;;
41323;SDS011;27073;51.128;4.220;2023-02-17T14:40:21;3.92;;;1.70;;
41323;SDS011;27073;51.128;4.220;2023-02-17T14:42:48;7.20;;;2.05;;
41323;SDS011;27073;51.128;4.220;2023-02-17T14:45:14;7.10;;;1.75;;
41323;SDS011;27073;51.128;4.220;2023-02-17T14:47:42;2.63;;;1.40;;
41323;SDS011;27073;51.128;4.220;2023-02-17T14:50:09;4.95;;;2.33;;
41323;SDS011;27073;51.128;4.220;2023-02-17T14:52:40;5.20;;;1.90;;
41323;SDS011;27073;51.128;4.220;2023-02-17T14:55:11;2.70;;;1.60;;
41323;SDS011;27073;51.128;4.220;2023-02-17T14:57:47;3.03;;;2.03;;
41323;SDS011;27073;51.128;4.220;2023-02-17T15:00:13;4.30;;;2.78;;
41323;SDS011;27073;51.128;4.220;2023-02-17T15:02:39;6.55;;;3.10;;
41323;SDS011;27073;51.128;4.220;2023-02-17T15:05:05;6.82;;;3.17;;
41323;SDS011;27073;51.128;4.220;2023-02-17T15:07:31;3.97;;;2.75;;
41323;SDS011;27073;51.128;4.220;2023-02-17T15:09:57;6.15;;;3.22;;
41323;SDS011;27073;51.128;4.220;2023-02-17T15:12:23;5.28;;;3.22;;
41323;SDS011;27073;51.128;4.220;2023-02-17T15:14:49;6.47;;;3.70;;
41323;SDS011;27073;51.128;4.220;2023-02-17T15:17:15;5.90;;;4.03;;
41323;SDS011;27073;51.128;4.220;2023-02-17T15:19:41;6.20;;;4.10;;
41323;SDS011;27073;51.128;4.220;2023-02-17T15:22:11;6.63;;;2.80;;
41323;SDS011;27073;51.128;4.220;2023-02-17T15:24:38;5.88;;;3.28;;
41323;SDS011;27073;51.128;4.220;2023-02-17T15:27:04;5.70;;;2.05;;
41323;SDS011;27073;51.128;4.220;2023-02-17T15:29:30;4.72;;;1.90;;
41323;SDS011;27073;51.128;4.220;2023-02-17T15:32:00;4.53;;;1.60;;
41323;SDS011;27073;51.128;4.220;2023-02-17T15:34:30;4.47;;;2.30;;
41323;SDS011;27073;51.128;4.220;2023-02-17T15:37:00;3.63;;;1.20;;
41323;SDS011;27073;51.128;4.220;2023-02-17T15:39:25;4.53;;;2.20;;
41323;SDS011;27073;51.128;4.220;2023-02-17T15:41:52;5.38;;;2.40;;
41323;SDS011;27073;51.128;4.220;2023-02-17T15:44:21;4.72;;;1.63;;
41323;SDS011;27073;51.128;4.220;2023-02-17T15:46:50;3.85;;;2.22;;
41323;SDS011;27073;51.128;4.220;2023-02-17T15:49:17;6.97;;;1.73;;
41323;SDS011;27073;51.128;4.220;2023-02-17T15:51:43;5.63;;;1.92;;
41323;SDS011;27073;51.128;4.220;2023-02-17T15:54:09;6.03;;;1.60;;
41323;SDS011;27073;51.128;4.220;2023-02-17T15:56:37;4.22;;;1.55;;
41323;SDS011;27073;51.128;4.220;2023-02-17T15:59:08;6.00;;;2.10;;
41323;SDS011;27073;51.128;4.220;2023-02-17T16:01:39;6.22;;;2.35;;
41323;SDS011;27073;51.128;4.220;2023-02-17T16:04:04;4.97;;;3.05;;
41323;SDS011;27073;51.128;4.220;2023-02-17T16:06:33;3.97;;;2.10;;
41323;SDS011;27073;51.128;4.220;2023-02-17T16:08:59;2.65;;;1.60;;
41323;SDS011;27073;51.128;4.220;2023-02-17T16:11:25;5.05;;;1.92;;
41323;SDS011;27073;51.128;4.220;2023-02-17T16:13:51;4.22;;;2.20;;
41323;SDS011;27073;51.128;4.220;2023-02-17T16:16:18;5.72;;;2.38;;
41323;SDS011;27073;51.128;4.220;2023-02-17T16:18:49;4.80;;;2.28;;
41323;SDS011;27073;51.128;4.220;2023-02-17T16:21:16;7.28;;;2.60;;
41323;SDS011;27073;51.128;4.220;2023-02-17T16:23:42;6.13;;;2.15;;
41323;SDS011;27073;51.128;4.220;2023-02-17T16:28:54;4.80;;;2.08;;
41323;SDS011;27073;51.128;4.220;2023-02-17T16:31:20;6.68;;;2.80;;
41323;SDS011;27073;51.128;4.220;2023-02-17T16:33:46;6.32;;;2.35;;
41323;SDS011;27073;51.128;4.220;2023-02-17T16:36:12;7.75;;;3.05;;
41323;SDS011;27073;51.128;4.220;2023-02-17T16:38:40;10.57;;;3.53;;
41323;SDS011;27073;51.128;4.220;2023-02-17T16:41:10;8.18;;;3.40;;
41323;SDS011;27073;51.128;4.220;2023-02-17T16:43:39;8.30;;;3.20;;
41323;SDS011;27073;51.128;4.220;2023-02-17T16:46:05;9.07;;;3.50;;
41323;SDS011;27073;51.128;4.220;2023-02-17T16:48:40;8.02;;;3.35;;
41323;SDS011;27073;51.128;4.220;2023-02-17T16:51:06;5.90;;;2.50;;
41323;SDS011;27073;51.128;4.220;2023-02-17T16:53:33;7.57;;;2.80;;
41323;SDS011;27073;51.128;4.220;2023-02-17T16:55:58;5.55;;;2.38;;
41323;SDS011;27073;51.128;4.220;2023-02-17T16:58:37;8.02;;;3.13;;
41323;SDS011;27073;51.128;4.220;2023-02-17T17:01:05;5.68;;;3.40;;
41323;SDS011;27073;51.128;4.220;2023-02-17T17:03:37;7.82;;;3.50;;
41323;SDS011;27073;51.128;4.220;2023-02-17T17:06:19;8.18;;;3.25;;
41323;SDS011;27073;51.128;4.220;2023-02-17T17:08:47;8.05;;;3.20;;
41323;SDS011;27073;51.128;4.220;2023-02-17T17:11:14;10.73;;;3.90;;